Time;durP1;ratioP1;P1;durP2;ratioP2;P2;SDS_P1;SDS_P2;PMS_P1;PMS_P2;Temp;Humidity;BMP_temperature;BMP_pressure;BME280_temperature;BME280_humidity;BME280_pressure;Samples;Min_cycle;Max_cycle;Signal;HPM_P1;HPM_P2
2023/08/16 00:01:56;;;;;;;6.00;4.70;;;;;;;22.54;100.00;154375.53;10506474;28;20040;-71
2023/08/16 00:06:58;;;;;;;5.32;4.90;;;;;;;22.38;100.00;154336.44;10487099;28;20135;-72
2023/08/16 00:12:00;;;;;;;5.00;4.60;;;;;;;22.42;100.00;154346.88;10504855;28;20454;-72
2023/08/16 00:17:02;;;;;;;5.25;4.75;;;;;;;22.44;100.00;154349.47;10504792;28;20067;-71
2023/08/16 00:22:04;;;;;;;4.68;4.28;;;;;;;22.30;100.00;154314.31;10504514;28;20044;-72
2023/08/16 00:27:06;;;;;;;5.68;5.25;;;;;;;22.30;100.00;154314.31;10504655;28;20040;-72
2023/08/16 00:32:10;;;;;;;5.40;4.90;;;;;;;22.43;100.00;154348.16;10505286;28;20071;-71
2023/08/16 00:37:12;;;;;;;5.05;4.25;;;;;;;22.45;100.00;154353.41;10487108;28;20395;-72
2023/08/16 00:42:15;;;;;;;5.85;5.47;;;;;;;22.54;100.00;154376.81;10504820;28;20033;-71
2023/08/16 00:47:16;;;;;;;5.22;4.82;;;;;;;22.35;100.00;154327.31;10504365;28;20123;-72
2023/08/16 00:52:18;;;;;;;4.78;4.38;;;;;;;22.30;100.00;154315.59;10504149;28;20128;-71
2023/08/16 00:57:20;;;;;;;5.35;4.95;;;;;;;22.15;100.00;154276.59;10502161;28;20068;-71
2023/08/16 01:02:24;;;;;;;4.78;4.47;;;;;;;22.37;100.00;154333.84;10484560;28;20048;-71
2023/08/16 01:07:26;;;;;;;4.35;4.05;;;;;;;22.37;100.00;154333.84;10502284;28;20037;-72
2023/08/16 01:12:40;;;;;;;5.93;5.53;;;;;;;22.39;100.00;154337.75;10502209;28;20048;-71
2023/08/16 01:17:43;;;;;;;5.55;5.15;;;;;;;22.14;100.00;154275.28;10501960;28;20048;-71
2023/08/16 01:22:51;;;;;;;5.57;5.07;;;;;;;21.91;100.00;154216.69;10484604;28;20090;-71
2023/08/16 01:27:54;;;;;;;5.95;5.38;;;;;;;21.79;100.00;154184.13;10484013;28;20120;-71
2023/08/16 01:33:05;;;;;;;6.10;5.57;;;;;;;21.66;100.00;154151.59;10483829;28;20525;-71
2023/08/16 01:38:12;;;;;;;7.22;5.60;;;;;;;21.75;100.00;154173.72;10483450;28;20049;-71
2023/08/16 01:43:16;;;;;;;5.43;5.00;;;;;;;21.85;100.00;154199.72;10484149;28;20116;-71
2023/08/16 01:48:21;;;;;;;6.63;6.13;;;;;;;21.85;100.00;154201.03;10501321;28;20078;-71
2023/08/16 01:53:23;;;;;;;7.90;6.88;;;;;;;21.79;100.00;154185.44;10501571;28;20486;-71
2023/08/16 01:58:25;;;;;;;7.45;6.85;;;;;;;21.95;100.00;154225.75;10500595;28;20048;-71
2023/08/16 02:03:27;;;;;;;6.68;6.07;;;;;;;21.82;100.00;154191.91;10483177;28;20383;-71
2023/08/16 02:08:28;;;;;;;6.22;5.70;;;;;;;21.72;100.00;154165.91;10500937;28;20044;-71
2023/08/16 02:13:30;;;;;;;7.20;6.65;;;;;;;21.71;100.00;154163.31;10500419;28;20037;-71
2023/08/16 02:18:32;;;;;;;7.43;6.95;;;;;;;21.77;100.00;154178.91;10500314;28;20102;-71
2023/08/16 02:23:34;;;;;;;5.90;5.50;;;;;;;21.75;100.00;154173.72;10501609;28;20040;-72
2023/08/16 02:28:36;;;;;;;8.18;7.53;;;;;;;21.86;100.00;154202.31;10481705;28;20059;-72
2023/08/16 02:33:37;;;;;;;7.70;6.68;;;;;;;21.76;100.00;154177.59;10500123;28;20079;-71
2023/08/16 02:38:39;;;;;;;7.00;6.50;;;;;;;21.53;100.00;154119.06;10482020;28;20052;-71
2023/08/16 02:43:41;;;;;;;7.95;7.35;;;;;;;21.40;100.00;154085.22;10500048;28;20115;-72
2023/08/16 02:48:42;;;;;;;8.50;7.90;;;;;;;21.32;100.00;154064.41;10482226;28;20083;-72
2023/08/16 02:53:44;;;;;;;7.68;7.07;;;;;;;21.24;100.00;154043.53;10498627;28;20059;-71
2023/08/16 02:58:46;;;;;;;5.70;5.30;;;;;;;21.34;100.00;154069.63;10498730;28;20115;-71
2023/08/16 03:03:47;;;;;;;5.22;4.82;;;;;;;21.48;100.00;154104.75;10481013;28;20068;-71
2023/08/16 03:08:49;;;;;;;6.38;5.88;;;;;;;21.36;100.00;154076.13;10464178;28;20048;-71
2023/08/16 03:13:51;;;;;;;6.38;5.97;;;;;;;21.26;100.00;154050.06;10466489;28;20106;-71
2023/08/16 03:18:54;;;;;;;6.38;5.68;;;;;;;21.42;100.00;154091.72;10484018;28;20052;-72
2023/08/16 03:23:56;;;;;;;6.47;5.97;;;;;;;21.29;100.00;154057.84;10509542;28;20478;-71
2023/08/16 03:28:58;;;;;;;5.97;5.53;;;;;;;21.14;100.00;154020.13;10491729;28;20041;-73
2023/08/16 03:33:59;;;;;;;4.40;4.10;;;;;;;21.08;100.00;154003.25;10489844;28;20100;-73
2023/08/16 03:39:05;;;;;;;4.72;4.38;;;;;;;21.10;100.00;154009.72;10489295;28;20040;-72
2023/08/16 03:44:07;;;;;;;3.97;3.67;;;;;;;21.11;100.00;154011.00;10507786;28;20397;-71
2023/08/16 03:49:09;;;;;;;4.07;3.78;;;;;;;21.16;100.00;154025.34;10506760;28;20041;-71
2023/08/16 03:54:10;;;;;;;4.07;3.55;;;;;;;21.33;100.00;154068.28;10507301;28;20123;-72
2023/08/16 03:59:13;;;;;;;4.43;4.03;;;;;;;21.20;100.00;154033.13;10490264;28;20101;-71
2023/08/16 04:04:16;;;;;;;3.88;3.05;;;;;;;21.21;100.00;154037.06;10507743;28;20041;-72
2023/08/16 04:09:18;;;;;;;3.80;3.47;;;;;;;21.26;100.00;154050.06;10490186;28;20044;-72
2023/08/16 04:14:19;;;;;;;4.07;3.38;;;;;;;21.15;100.00;154022.72;10507579;28;20097;-72
2023/08/16 04:19:21;;;;;;;4.00;3.60;;;;;;;21.27;100.00;154051.34;10506749;28;20048;-72
2023/08/16 04:24:23;;;;;;;4.35;3.38;;;;;;;21.32;100.00;154064.41;10505031;28;20040;-72
2023/08/16 04:29:25;;;;;;;3.75;3.45;;;;;;;21.36;100.00;154076.13;10486028;28;20101;-72
2023/08/16 04:34:26;;;;;;;2.92;2.72;;;;;;;21.42;100.00;154090.41;10486213;28;20041;-72
2023/08/16 04:39:28;;;;;;;3.38;3.17;;;;;;;21.58;100.00;154130.78;10485857;28;20044;-72
2023/08/16 04:44:30;;;;;;;3.92;3.63;;;;;;;21.62;100.00;154142.47;10485536;28;20049;-72
2023/08/16 04:49:32;;;;;;;3.55;3.25;;;;;;;21.51;100.00;154113.81;10504115;28;20037;-71
2023/08/16 04:54:34;;;;;;;5.13;4.68;;;;;;;21.34;100.00;154070.94;10484968;28;20135;-72
2023/08/16 04:59:36;;;;;;;4.68;4.25;;;;;;;21.28;100.00;154053.94;10502991;28;20040;-72
2023/08/16 05:04:38;;;;;;;3.85;3.55;;;;;;;21.24;100.00;154043.53;10485409;28;20036;-72
2023/08/16 05:09:39;;;;;;;4.28;3.97;;;;;;;21.23;100.00;154040.94;10502713;28;20051;-72
2023/08/16 05:14:41;;;;;;;3.95;3.28;;;;;;;21.38;100.00;154080.00;10484311;28;20047;-72
2023/08/16 05:19:43;;;;;;;4.60;3.63;;;;;;;21.15;100.00;154022.72;10484430;28;20055;-72
2023/08/16 05:24:45;;;;;;;3.72;3.40;;;;;;;21.27;100.00;154051.34;10484630;28;20477;-72
2023/08/16 05:29:47;;;;;;;4.20;3.90;;;;;;;21.48;100.00;154104.75;10501893;28;20044;-72
2023/08/16 05:34:52;;;;;;;3.63;3.33;;;;;;;21.63;100.00;154145.06;10501941;28;20037;-72
2023/08/16 05:39:54;;;;;;;4.15;3.75;;;;;;;21.38;100.00;154080.00;10503104;28;20372;-72
2023/08/16 05:44:56;;;;;;;5.03;4.00;;;;;;;21.24;100.00;154043.53;10501798;28;20037;-72
2023/08/16 05:49:59;;;;;;;4.45;4.05;;;;;;;21.23;100.00;154040.94;10502978;28;20097;-71
2023/08/16 05:55:01;;;;;;;5.15;4.82;;;;;;;21.16;100.00;154024.00;10483831;28;20036;-72
2023/08/16 06:00:03;;;;;;;4.35;4.05;;;;;;;21.56;100.00;154126.88;10500188;28;20091;-73
2023/08/16 06:05:12;;;;;;;5.85;4.50;;;;;;;21.67;100.00;154154.19;10500174;28;20052;-72
2023/08/16 06:10:14;;;;;;;4.93;4.20;;;;;;;21.42;100.00;154091.72;10501201;28;20075;-72
2023/08/16 06:15:16;;;;;;;4.40;4.00;;;;;;;21.40;100.00;154086.53;10499719;28;20080;-72
2023/08/16 06:20:18;;;;;;;3.80;3.50;;;;;;;21.43;100.00;154093.06;10499120;28;20052;-72
2023/08/16 06:25:20;;;;;;;4.00;3.60;;;;;;;21.54;100.00;154120.34;10481133;28;20449;-72
2023/08/16 06:30:21;;;;;;;4.13;3.83;;;;;;;21.52;100.00;154116.47;10499434;28;20055;-72
2023/08/16 06:35:24;;;;;;;3.88;3.58;;;;;;;21.47;100.00;154103.47;10499311;28;20037;-72
2023/08/16 06:40:26;;;;;;;4.82;4.43;;;;;;;21.45;100.00;154096.94;10498719;28;20555;-72
2023/08/16 06:45:28;;;;;;;4.07;3.78;;;;;;;21.28;100.00;154055.25;10498150;28;20037;-72
2023/08/16 06:50:32;;;;;;;4.22;3.90;;;;;;;21.31;100.00;154063.13;10497377;28;20036;-72
2023/08/16 06:55:35;;;;;;;4.53;4.15;;;;;;;21.67;100.00;154155.47;10497797;28;20482;-72
2023/08/16 07:00:44;;;;;;;4.55;4.25;;;;;;;21.53;100.00;154119.06;10498503;28;20117;-72
2023/08/16 07:05:46;;;;;;;4.63;4.22;;;;;;;21.73;100.00;154169.78;10499189;28;20460;-71
2023/08/16 07:10:47;;;;;;;5.68;5.18;;;;;;;21.59;100.00;154133.34;10498599;28;20104;-75
2023/08/16 07:15:49;;;;;;;5.32;4.72;;;;;;;21.47;100.00;154103.47;10498760;28;20040;-77
2023/08/16 07:20:51;;;;;;;5.72;5.32;;;;;;;21.23;100.00;154040.94;10498397;28;20138;-76
2023/08/16 07:25:56;;;;;;;5.53;4.97;;;;;;;21.47;100.00;154103.47;10498650;28;20043;-75
2023/08/16 07:30:58;;;;;;;5.85;5.13;;;;;;;21.55;100.00;154122.94;10498994;28;20043;-76
2023/08/16 07:36:01;;;;;;;5.60;5.20;;;;;;;21.52;100.00;154115.19;10498122;28;20041;-77
2023/08/16 07:41:03;;;;;;;5.03;4.40;;;;;;;21.73;100.00;154169.78;10498910;28;20094;-76
2023/08/16 07:46:05;;;;;;;4.40;4.00;;;;;;;21.85;100.00;154199.72;10498489;28;20040;-76
2023/08/16 07:51:06;;;;;;;4.43;4.03;;;;;;;21.91;100.00;154215.34;10482652;28;20548;-76
2023/08/16 07:56:08;;;;;;;4.88;4.47;;;;;;;21.92;100.00;154219.25;10466222;28;20405;-76
2023/08/16 08:01:10;;;;;;;4.70;4.40;;;;;;;22.10;100.00;154263.53;10476935;28;20406;-76
2023/08/16 08:06:12;;;;;;;5.63;5.22;;;;;;;22.61;100.00;154393.72;10496008;28;20083;-75
2023/08/16 08:11:14;;;;;;;4.80;4.40;;;;;;;23.01;99.60;154495.34;10504803;28;20060;-74
2023/08/16 08:16:16;;;;;;;5.60;5.20;;;;;;;23.22;97.26;154548.75;10490247;28;20119;-75
2023/08/16 08:21:18;;;;;;;5.63;5.22;;;;;;;23.48;94.92;154615.22;10463641;28;20372;-74
2023/08/16 08:26:19;;;;;;;5.03;4.65;;;;;;;23.56;94.38;154637.34;10462771;28;20041;-75
2023/08/16 08:31:21;;;;;;;4.63;4.28;;;;;;;23.97;88.75;154741.63;10473697;28;20607;-75
2023/08/16 08:36:23;;;;;;;4.47;4.07;;;;;;;24.23;87.04;154806.81;10501274;28;20071;-76
2023/08/16 08:41:25;;;;;;;4.68;3.63;;;;;;;24.32;86.96;154830.25;10503920;28;20494;-75
2023/08/16 08:46:47;;;;;;;4.32;4.03;;;;;;;24.47;87.32;154868.09;10504672;28;20059;-76
2023/08/16 08:51:50;;;;;;;3.70;3.45;;;;;;;24.93;81.92;154986.75;10504224;28;20044;-75
2023/08/16 08:56:53;;;;;;;4.30;4.00;;;;;;;24.77;82.42;154945.03;10503297;28;20379;-75
2023/08/16 09:01:56;;;;;;;3.70;3.40;;;;;;;25.22;78.58;155059.81;10503823;28;20070;-75
2023/08/16 09:07:03;;;;;;;4.68;4.28;;;;;;;24.66;82.02;154918.97;10502025;28;20521;-75
2023/08/16 09:12:05;;;;;;;4.07;3.78;;;;;;;24.20;85.88;154798.97;10504124;28;20390;-74
2023/08/16 09:17:07;;;;;;;3.20;3.00;;;;;;;24.25;86.78;154813.28;10501433;28;20045;-75
2023/08/16 09:22:10;;;;;;;3.65;3.38;;;;;;;23.90;90.04;154724.66;10502423;28;20434;-74
2023/08/16 09:27:12;;;;;;;3.72;3.50;;;;;;;23.89;89.47;154720.78;10501769;28;20040;-75
2023/08/16 09:32:14;;;;;;;3.70;3.40;;;;;;;24.20;89.57;154798.97;10502807;28;20040;-74
2023/08/16 09:37:19;;;;;;;3.47;3.17;;;;;;;24.27;88.97;154817.22;10501695;28;20384;-74
2023/08/16 09:42:21;;;;;;;4.22;3.92;;;;;;;24.37;87.53;154844.63;10484617;28;20413;-75
2023/08/16 09:47:28;;;;;;;3.85;3.65;;;;;;;24.11;88.39;154778.09;10501388;28;20041;-76
2023/08/16 09:52:50;;;;;;;4.10;3.40;;;;;;;23.76;91.11;154686.91;10503135;28;20098;-76
2023/08/16 09:57:55;;;;;;;3.72;3.42;;;;;;;23.96;90.49;154737.75;10502798;28;20044;-74
2023/08/16 10:02:58;;;;;;;3.35;3.05;;;;;;;24.31;88.43;154827.66;10502460;28;20032;-74
2023/08/16 10:08:04;;;;;;;4.22;3.92;;;;;;;24.61;86.37;154905.94;10502897;28;20040;-75
2023/08/16 10:13:07;;;;;;;3.95;3.65;;;;;;;25.01;83.36;155007.56;10502966;28;20046;-75
2023/08/16 10:18:12;;;;;;;3.75;3.45;;;;;;;24.81;85.07;154956.75;10502154;28;20047;-74
2023/08/16 10:23:18;;;;;;;3.28;2.97;;;;;;;24.95;85.33;154991.94;10502285;28;20033;-74
2023/08/16 10:28:23;;;;;;;3.60;3.30;;;;;;;25.34;80.21;155092.41;10500990;28;20040;-75
2023/08/16 10:33:35;;;;;;;;;;;;;;;25.43;80.95;155114.59;10501105;28;20087;-75
2023/08/16 10:38:38;;;;;;;3.60;3.30;;;;;;;25.60;78.56;155158.94;10498508;28;19924;-75
2023/08/16 10:43:53;;;;;;;2.88;2.67;;;;;;;25.84;75.54;155219.00;10500275;28;20123;-74
2023/08/16 10:49:03;;;;;;;2.60;2.40;;;;;;;26.26;74.93;155326.00;10499879;28;20043;-75
2023/08/16 10:54:04;;;;;;;3.72;3.42;;;;;;;27.12;69.55;155547.97;10481855;28;20409;-75
2023/08/16 10:59:07;;;;;;;2.83;2.63;;;;;;;27.17;70.50;155559.72;10481006;28;20446;-74
2023/08/16 11:04:09;;;;;;;3.03;2.83;;;;;;;26.29;72.84;155333.81;10480966;28;20066;-74
2023/08/16 11:09:12;;;;;;;3.17;2.83;;;;;;;26.19;72.75;155307.72;10499920;28;20090;-74
2023/08/16 11:14:14;;;;;;;3.50;3.20;;;;;;;26.33;73.21;155345.56;10499600;28;20047;-75
2023/08/16 11:19:21;;;;;;;3.78;3.58;;;;;;;26.54;73.21;155397.81;10499806;28;20106;-75
2023/08/16 11:24:24;;;;;;;3.50;3.22;;;;;;;26.65;71.51;155427.84;10499578;28;20125;-75
2023/08/16 11:29:26;;;;;;;4.85;4.45;;;;;;;26.98;70.10;155510.09;10499185;28;20449;-75
2023/08/16 11:34:31;;;;;;;4.65;4.35;;;;;;;26.78;69.78;155459.16;10498630;28;20090;-75
2023/08/16 11:39:36;;;;;;;4.50;3.97;;;;;;;27.59;65.91;155666.84;10498793;28;20486;-74
2023/08/16 11:44:39;;;;;;;3.97;3.67;;;;;;;28.18;63.82;155818.38;10506597;28;20086;-74
2023/08/16 11:49:40;;;;;;;3.75;3.25;;;;;;;27.84;64.59;155732.16;10507699;28;20044;-75
2023/08/16 11:54:42;;;;;;;3.72;3.53;;;;;;;27.34;65.39;155604.13;10491426;28;20052;-75
2023/08/16 11:59:54;;;;;;;4.07;3.78;;;;;;;27.70;65.25;155694.25;10506288;28;20051;-75
2023/08/16 12:04:56;;;;;;;4.05;3.75;;;;;;;28.47;62.94;155891.63;10488736;28;20044;-75
2023/08/16 12:09:58;;;;;;;3.50;3.20;;;;;;;28.54;63.43;155909.88;10504558;28;20394;-74
2023/08/16 12:14:59;;;;;;;4.65;4.28;;;;;;;28.40;62.70;155874.63;10505361;28;20036;-75
2023/08/16 12:20:01;;;;;;;3.65;3.35;;;;;;;29.03;59.01;156036.69;10504817;28;20154;-75
2023/08/16 12:25:07;;;;;;;4.55;4.07;;;;;;;28.61;59.27;155928.19;10505767;28;20044;-75
2023/08/16 12:30:10;;;;;;;3.42;3.17;;;;;;;29.42;57.96;156136.06;10505241;28;20407;-75
2023/08/16 12:35:12;;;;;;;4.00;3.60;;;;;;;28.76;59.31;155966.06;10504903;28;20401;-75
2023/08/16 12:40:13;;;;;;;4.60;3.85;;;;;;;28.34;60.39;155860.19;10504684;28;20044;-74
2023/08/16 12:45:15;;;;;;;3.15;2.92;;;;;;;28.74;59.81;155960.88;10491727;28;20149;-75
2023/08/16 12:50:17;;;;;;;3.13;2.88;;;;;;;28.50;59.68;155899.44;10468219;28;20453;-74
2023/08/16 12:55:19;;;;;;;2.97;2.78;;;;;;;28.96;60.61;156018.41;10504379;28;20127;-74
2023/08/16 13:00:21;;;;;;;3.33;3.08;;;;;;;29.76;56.42;156222.41;10505246;28;20055;-74
2023/08/16 13:05:26;;;;;;;2.75;2.55;;;;;;;29.42;54.97;156136.06;10488889;28;20052;-75
2023/08/16 13:10:31;;;;;;;3.20;2.90;;;;;;;29.22;58.53;156085.09;10505616;28;20453;-75
2023/08/16 13:15:39;;;;;;;3.60;3.40;;;;;;;28.56;59.29;155915.13;10505089;28;20570;-75
2023/08/16 13:20:46;;;;;;;3.22;2.50;;;;;;;28.54;59.02;155911.19;10505735;28;20116;-75
2023/08/16 13:25:59;;;;;;;3.10;2.63;;;;;;;28.91;57.67;156005.31;10506097;28;20094;-75
2023/08/16 13:31:14;;;;;;;3.05;2.75;;;;;;;28.89;56.98;156001.34;10510597;28;20055;-75
2023/08/16 13:36:36;;;;;;;3.00;2.72;;;;;;;29.10;56.68;156055.00;10505717;28;20044;-76
2023/08/16 13:41:41;;;;;;;2.45;2.25;;;;;;;28.73;57.57;155958.22;10504965;28;20037;-75
2023/08/16 13:46:45;;;;;;;3.23;3.03;;;;;;;28.65;59.18;155939.94;10503294;28;20371;-75
2023/08/16 13:51:47;;;;;;;3.13;2.92;;;;;;;28.34;59.67;155858.91;10503430;28;20298;-74
2023/08/16 13:56:49;;;;;;;3.30;3.00;;;;;;;28.34;59.51;155860.19;10503561;28;20044;-75
2023/08/16 14:01:52;;;;;;;3.58;3.22;;;;;;;28.21;60.54;155826.22;10503003;28;20098;-74
2023/08/16 14:06:54;;;;;;;3.17;2.88;;;;;;;28.12;60.42;155802.72;10503770;28;20044;-76
2023/08/16 14:11:57;;;;;;;3.03;2.80;;;;;;;28.03;61.39;155779.22;10504130;28;20048;-75
2023/08/16 14:16:59;;;;;;;2.92;2.60;;;;;;;28.06;62.99;155788.31;10505637;28;20048;-75
2023/08/16 14:22:01;;;;;;;2.33;2.22;;;;;;;28.07;59.47;155789.66;10505328;28;20040;-75
2023/08/16 14:27:03;;;;;;;2.63;2.42;;;;;;;28.35;57.85;155861.56;10502302;28;20041;-75
2023/08/16 14:32:05;;;;;;;2.78;2.58;;;;;;;28.43;57.39;155881.16;10501949;28;20040;-75
2023/08/16 14:37:07;;;;;;;3.25;2.80;;;;;;;28.37;58.66;155866.75;10501983;28;20045;-74
2023/08/16 14:42:09;;;;;;;2.70;2.50;;;;;;;28.41;57.32;155877.22;10505092;28;20182;-74
2023/08/16 14:47:12;;;;;;;3.60;3.30;;;;;;;28.28;58.59;155844.50;10489554;28;20044;-74
2023/08/16 14:52:14;;;;;;;3.13;2.83;;;;;;;28.22;58.54;155827.53;10505528;28;20123;-74
2023/08/16 14:57:16;;;;;;;3.38;3.17;;;;;;;28.04;61.46;155783.13;10501831;28;20045;-74
2023/08/16 15:02:18;;;;;;;3.38;3.08;;;;;;;28.27;59.29;155841.91;10483386;28;20041;-74
2023/08/16 15:07:21;;;;;;;3.53;3.22;;;;;;;28.31;59.85;155852.34;10500250;28;20102;-74
2023/08/16 15:12:23;;;;;;;3.22;3.03;;;;;;;28.51;58.16;155902.03;10500739;28;20099;-74
2023/08/16 15:17:26;;;;;;;3.47;3.15;;;;;;;28.88;57.53;155998.75;10499078;28;20045;-75
2023/08/16 15:22:28;;;;;;;3.28;3.08;;;;;;;28.62;59.93;155930.81;10500134;28;20540;-74
2023/08/16 15:27:30;;;;;;;2.90;2.70;;;;;;;28.67;58.10;155945.16;10499232;28;20048;-74
2023/08/16 15:32:32;;;;;;;3.22;2.95;;;;;;;28.11;60.76;155800.06;10499325;28;20140;-74
2023/08/16 15:37:34;;;;;;;3.67;3.38;;;;;;;27.97;60.82;155763.50;10499513;28;20068;-73
2023/08/16 15:42:36;;;;;;;4.05;3.75;;;;;;;27.69;62.07;155692.94;10480213;28;20052;-74
2023/08/16 15:47:38;;;;;;;3.47;3.28;;;;;;;27.65;61.50;155683.78;10484273;28;20072;-74
2023/08/16 15:52:40;;;;;;;3.50;3.20;;;;;;;27.79;61.75;155717.78;10458596;28;20045;-74
2023/08/16 15:57:42;;;;;;;3.80;3.50;;;;;;;27.73;61.86;155703.44;10498449;28;20064;-73
2023/08/16 16:02:44;;;;;;;3.53;3.22;;;;;;;27.57;61.63;155662.88;10499738;28;20119;-74
2023/08/16 16:07:46;;;;;;;3.30;3.10;;;;;;;27.56;61.71;155660.28;10499570;28;20102;-74
2023/08/16 16:12:47;;;;;;;3.88;3.58;;;;;;;27.57;63.50;155662.88;10499215;28;20117;-75
2023/08/16 16:17:49;;;;;;;3.78;3.47;;;;;;;27.59;62.75;155668.13;10485412;28;20490;-75
2023/08/16 16:22:53;;;;;;;4.03;3.65;;;;;;;27.55;63.63;155656.38;10459322;28;20041;-74
2023/08/16 16:27:55;;;;;;;4.50;4.10;;;;;;;27.45;63.46;155631.56;10509899;28;20391;-74
2023/08/16 16:32:57;;;;;;;4.18;3.88;;;;;;;27.51;63.23;155645.94;10546950;28;20520;-74
2023/08/16 16:37:59;;;;;;;4.60;4.30;;;;;;;27.44;62.58;155627.63;10545017;28;20036;-74
2023/08/16 16:43:01;;;;;;;4.18;3.88;;;;;;;27.31;63.12;155594.97;10546838;28;20032;-75
2023/08/16 16:48:04;;;;;;;4.18;3.88;;;;;;;27.34;63.36;155604.13;10547174;28;20036;-75
2023/08/16 16:53:06;;;;;;;4.00;3.70;;;;;;;27.29;62.67;155589.78;10527919;28;20128;-73
2023/08/16 16:58:08;;;;;;;4.78;4.45;;;;;;;27.05;64.04;155529.69;10480686;28;20132;-74
2023/08/16 17:03:11;;;;;;;4.60;4.18;;;;;;;27.03;63.60;155523.13;10487623;28;20036;-74
2023/08/16 17:08:14;;;;;;;4.03;3.72;;;;;;;27.08;63.30;155536.19;10488892;28;20037;-75
2023/08/16 17:13:16;;;;;;;4.75;4.43;;;;;;;26.95;64.75;155502.25;10491492;28;20044;-74
2023/08/16 17:18:18;;;;;;;4.13;3.83;;;;;;;26.94;64.94;155499.63;10465295;28;20036;-75
2023/08/16 17:23:20;;;;;;;4.28;3.97;;;;;;;26.91;65.96;155493.09;10481638;28;20068;-74
2023/08/16 17:28:22;;;;;;;4.22;3.90;;;;;;;26.89;65.86;155489.19;10464479;28;20067;-75
2023/08/16 17:33:24;;;;;;;4.70;4.40;;;;;;;26.73;65.80;155447.41;10484596;28;20049;-74
2023/08/16 17:38:27;;;;;;;5.65;5.25;;;;;;;26.73;66.23;155446.09;10484233;28;20091;-75
2023/08/16 17:43:29;;;;;;;5.28;4.97;;;;;;;26.65;66.61;155426.50;10481419;28;20033;-75
2023/08/16 17:48:31;;;;;;;4.82;4.53;;;;;;;26.36;67.95;155353.41;10468881;28;20040;-75
2023/08/16 17:53:33;;;;;;;5.82;5.40;;;;;;;26.22;68.97;155316.88;10462684;28;20055;-74
2023/08/16 17:58:35;;;;;;;6.75;6.35;;;;;;;26.09;70.12;155284.25;10464391;28;20063;-74
2023/08/16 18:03:37;;;;;;;6.18;5.78;;;;;;;26.01;70.05;155263.34;10491549;28;20083;-74
2023/08/16 18:08:44;;;;;;;6.53;6.13;;;;;;;25.91;70.96;155238.56;10501595;28;20039;-74
2023/08/16 18:13:47;;;;;;;5.97;5.57;;;;;;;25.77;71.45;155202.06;10501994;28;20409;-75
2023/08/16 18:18:49;;;;;;;7.30;6.90;;;;;;;25.60;72.67;155158.94;10504025;28;20059;-75
2023/08/16 18:23:51;;;;;;;7.45;7.05;;;;;;;25.70;72.74;155183.72;10508367;28;20041;-75
2023/08/16 18:28:53;;;;;;;6.78;6.38;;;;;;;25.50;73.92;155132.88;10448820;28;20517;-75
2023/08/16 18:33:55;;;;;;;11.45;10.63;;;;;;;25.33;74.02;155089.81;10460241;28;20198;-74
2023/08/16 18:38:57;;;;;;;12.40;10.68;;;;;;;25.37;76.19;155098.97;10461264;28;20041;-75
2023/08/16 18:43:59;;;;;;;10.52;9.82;;;;;;;25.24;76.29;155066.34;10461703;28;20407;-75
2023/08/16 18:49:01;;;;;;;10.50;9.80;;;;;;;25.13;77.65;155037.63;10444821;28;20045;-75
2023/08/16 18:54:04;;;;;;;9.18;8.57;;;;;;;24.99;80.40;155002.38;10463774;28;20129;-76
2023/08/16 18:59:06;;;;;;;8.45;7.93;;;;;;;25.01;81.53;155007.56;10442621;28;20075;-76
2023/08/16 19:04:09;;;;;;;8.15;7.65;;;;;;;24.83;82.29;154961.94;10489720;28;20041;-74
2023/08/16 19:09:11;;;;;;;8.60;8.10;;;;;;;24.71;82.66;154929.41;10483688;28;20408;-75
2023/08/16 19:14:12;;;;;;;7.45;6.95;;;;;;;24.50;84.05;154877.22;10502869;28;20049;-75
2023/08/16 19:19:15;;;;;;;9.20;8.50;;;;;;;24.46;84.58;154865.50;10501602;28;20140;-75
2023/08/16 19:24:17;;;;;;;8.82;8.23;;;;;;;24.30;85.58;154826.31;10502146;28;20131;-74
2023/08/16 19:29:19;;;;;;;11.77;7.90;;;;;;;24.08;87.60;154768.97;10484984;28;20072;-75
2023/08/16 19:34:21;;;;;;;8.75;8.15;;;;;;;23.92;88.96;154729.91;10503804;28;20043;-74
2023/08/16 19:39:24;;;;;;;8.25;7.75;;;;;;;23.80;90.36;154698.63;10503206;28;20041;-75
2023/08/16 19:44:26;;;;;;;9.13;8.52;;;;;;;23.82;90.58;154702.56;10502929;28;20040;-75
2023/08/16 19:49:31;;;;;;;10.10;9.50;;;;;;;23.70;91.40;154672.56;10508506;28;20052;-75
2023/08/16 19:54:33;;;;;;;9.90;9.27;;;;;;;23.76;91.85;154686.91;10487346;28;20044;-75
2023/08/16 19:59:35;;;;;;;9.15;8.55;;;;;;;23.56;93.20;154637.34;10505120;28;20044;-75
2023/08/16 20:04:37;;;;;;;9.75;9.13;;;;;;;23.73;92.73;154680.41;10510629;28;20040;-77
2023/08/16 20:09:40;;;;;;;10.32;9.73;;;;;;;23.82;90.53;154703.84;10511256;28;20072;-75
2023/08/16 20:14:42;;;;;;;10.50;9.80;;;;;;;23.80;91.18;154697.31;10510380;28;20044;-76
2023/08/16 20:19:44;;;;;;;9.63;9.07;;;;;;;23.65;91.84;154659.56;10509570;28;20067;-76
2023/08/16 20:24:49;;;;;;;9.15;8.52;;;;;;;23.25;94.67;154556.59;10491101;28;20051;-74
2023/08/16 20:29:51;;;;;;;10.70;10.10;;;;;;;23.32;95.63;154574.81;10507725;28;20090;-75
2023/08/16 20:34:58;;;;;;;10.50;9.80;;;;;;;23.37;94.79;154589.16;10507551;28;20417;-75
2023/08/16 20:40:00;;;;;;;11.55;10.75;;;;;;;23.01;97.03;154496.66;10510701;28;20123;-77
2023/08/16 20:45:04;;;;;;;11.32;10.52;;;;;;;23.00;97.84;154494.06;10489414;28;20041;-75
2023/08/16 20:50:09;;;;;;;11.38;10.57;;;;;;;22.95;99.00;154479.75;10507403;28;20052;-75
2023/08/16 20:55:11;;;;;;;11.45;10.75;;;;;;;22.99;98.58;154490.16;10503644;28;20040;-75
2023/08/16 21:00:13;;;;;;;11.57;10.77;;;;;;;23.01;97.59;154496.66;10504275;28;20119;-75
2023/08/16 21:05:15;;;;;;;11.18;10.48;;;;;;;22.93;98.34;154475.81;10485537;28;20044;-75
2023/08/16 21:10:18;;;;;;;10.68;10.07;;;;;;;22.64;100.00;154402.84;10503453;28;20490;-75
2023/08/16 21:15:20;;;;;;;12.05;11.15;;;;;;;22.80;100.00;154443.25;10502551;28;20060;-75
2023/08/16 21:20:21;;;;;;;11.80;11.00;;;;;;;22.85;99.43;154454.97;10503638;28;20045;-74
2023/08/16 21:25:26;;;;;;;11.52;10.82;;;;;;;22.90;100.00;154468.03;10505357;28;20066;-75
2023/08/16 21:30:28;;;;;;;11.05;10.35;;;;;;;22.61;100.00;154393.72;10485569;28;20419;-75
2023/08/16 21:35:32;;;;;;;12.90;12.02;;;;;;;22.61;100.00;154395.03;10502332;28;20086;-74
2023/08/16 21:40:33;;;;;;;11.40;10.70;;;;;;;23.08;100.00;154514.91;10502130;28;20048;-75
2023/08/16 21:45:38;;;;;;;12.20;11.40;;;;;;;23.24;98.23;154553.94;10483845;28;20586;-74
2023/08/16 21:50:40;;;;;;;12.20;11.40;;;;;;;23.22;97.98;154550.06;10501707;28;20078;-74
2023/08/16 21:55:44;;;;;;;10.10;9.50;;;;;;;23.05;100.00;154507.06;10500917;28;20090;-75
2023/08/16 22:00:46;;;;;;;10.40;9.77;;;;;;;23.22;97.88;154550.06;10483907;28;20098;-74
2023/08/16 22:05:50;;;;;;;13.13;12.02;;;;;;;22.99;99.89;154490.16;10500322;28;20394;-74
2023/08/16 22:10:52;;;;;;;9.57;8.98;;;;;;;23.15;94.71;154531.81;10502320;28;20474;-75
2023/08/16 22:15:54;;;;;;;9.80;9.10;;;;;;;23.14;94.81;154529.22;10482704;28;20043;-74
2023/08/16 22:20:55;;;;;;;8.60;8.00;;;;;;;23.15;94.24;154531.81;10500836;28;20513;-74
2023/08/16 22:26:06;;;;;;;8.15;7.63;;;;;;;23.11;94.53;154521.44;10499207;28;20043;-75
2023/08/16 22:31:08;;;;;;;9.07;8.40;;;;;;;23.02;95.10;154499.28;10499976;28;20395;-75
2023/08/16 22:36:10;;;;;;;8.32;7.82;;;;;;;22.91;95.75;154471.91;10499381;28;20040;-75
2023/08/16 22:41:12;;;;;;;8.45;7.90;;;;;;;23.02;95.54;154497.94;10501216;28;20055;-75
2023/08/16 22:46:15;;;;;;;7.20;6.70;;;;;;;22.86;95.55;154457.56;10499575;28;20075;-75
2023/08/16 22:51:17;;;;;;;7.68;7.03;;;;;;;23.02;96.19;154499.28;10499292;28;20049;-75
2023/08/16 22:56:18;;;;;;;7.78;7.28;;;;;;;23.13;95.41;154527.91;10498618;28;20406;-75
2023/08/16 23:01:20;;;;;;;7.38;6.97;;;;;;;22.75;97.61;154430.19;10498691;28;20041;-75